Main page
METAR-TAF:

METAR-TAF

Airports :

RAF Valley

Valley, Wales

latitude: 53-15N, longitude: 004-32W, elevation: 1 m

Current weather observation

The report was made 44 minutes ago, at 15:50 UTC
Wind 8 kt from the Northwest
Temperature 22°C
Humidity 43%
Pressure 1030 hPa
Visibility 10 km or more

METAR: EGOV 281550Z AUTO 32008KT 9999 NCD 22/09 Q1030

Time: 17:34 (16:34 UTC)

Forecast

The report was made 5 hours and 56 minutes ago, at 10:38 UTC
Forecast valid from 28 at 12 UTC to 28 at 17 UTC
Wind 5 kt from the North/Northwest
Visibility 10 km or more
no clouds below 1500 m and no cumulonimbus

TAF: EGOV 281038Z 2812/2817 33005KT CAVOK

Weather observations and forecasts of more than 4000 airports (METAR and TAF reports).

The available stations are represented by yellow and red dots on the map.

Hover mouse over dot to see the name of the station.

Then click to see weather observations and forecasts.

To change the map : click on the green buttons with a black cross to zoom in, on the green button with a dash to zoom out, or on the green arrows for adjacent maps.


METAR-TAF: